Amanda, Ohio
Current Conditions -  °F | °C
As of 4:53 AM on Thursday 18 Dec 2014 (Local Time) from KLHQ Reporting Station
Overcast Overcast  
Wind Chill: 23°   Ceiling: 2200
Heat Index: 28°   Visibility: 10mi
Dew Point: 20°   Wind: 5mph
Humidity: 72%   Direction: 290°WNW
Pressure: 30.25"   Gusts: NA
Location:  39.65°N, 82.74°W
Report Text: KLHQ 180953Z AUTO 29004KT 10SM OVC022 M02/M07 A3025 RMK AO2 SLP252 T10221067
Loading
Personal Weather Stations






























Interactive Weather Map New forecast layout! Learn more

10-Day Weather Forecast

Advertisements
Track Severe Weather on mobile